sensor_id;sensor_type;location;lat;lon;timestamp;pressure;altitude;pressure_sealevel;temperature;humidity
65546;BME280;52177;55.968;37.498;2023-07-29T00:00:17;98771.28;;;15.79;83.38
65546;BME280;52177;55.968;37.498;2023-07-29T00:00:47;98772.31;;;15.78;83.48
65546;BME280;52177;55.968;37.498;2023-07-29T00:01:18;98775.59;;;15.80;83.55
65546;BME280;52177;55.968;37.498;2023-07-29T00:01:48;98770.47;;;15.78;83.46
65546;BME280;52177;55.968;37.498;2023-07-29T00:02:19;98773.97;;;15.79;83.62
65546;BME280;52177;55.968;37.498;2023-07-29T00:02:49;98774.19;;;15.77;83.69
65546;BME280;52177;55.968;37.498;2023-07-29T00:03:20;98767.78;;;15.78;83.54
65546;BME280;52177;55.968;37.498;2023-07-29T00:03:50;98768.59;;;15.79;83.59
65546;BME280;52177;55.968;37.498;2023-07-29T00:04:20;98773.97;;;15.79;83.71
65546;BME280;52177;55.968;37.498;2023-07-29T00:04:51;98769.63;;;15.78;83.69
65546;BME280;52177;55.968;37.498;2023-07-29T00:05:21;98773.38;;;15.77;83.83
65546;BME280;52177;55.968;37.498;2023-07-29T00:05:51;98772.56;;;15.76;83.85
65546;BME280;52177;55.968;37.498;2023-07-29T00:06:22;98773.59;;;15.75;84.04
65546;BME280;52177;55.968;37.498;2023-07-29T00:06:52;98763.69;;;15.76;84.26
65546;BME280;52177;55.968;37.498;2023-07-29T00:07:22;98765.53;;;15.75;84.18
65546;BME280;52177;55.968;37.498;2023-07-29T00:07:53;98778.75;;;15.77;84.48
65546;BME280;52177;55.968;37.498;2023-07-29T00:08:23;98774.19;;;15.77;84.34
65546;BME280;52177;55.968;37.498;2023-07-29T00:08:53;98775.84;;;15.78;84.41
65546;BME280;52177;55.968;37.498;2023-07-29T00:09:24;98775.84;;;15.78;84.53
65546;BME280;52177;55.968;37.498;2023-07-29T00:09:54;98776.06;;;15.77;84.27
65546;BME280;52177;55.968;37.498;2023-07-29T00:10:25;98782.25;;;15.77;84.48
65546;BME280;52177;55.968;37.498;2023-07-29T00:10:55;98777.69;;;15.78;84.53
65546;BME280;52177;55.968;37.498;2023-07-29T00:11:26;98788.22;;;15.79;84.52
65546;BME280;52177;55.968;37.498;2023-07-29T00:11:56;98777.47;;;15.79;84.59
65546;BME280;52177;55.968;37.498;2023-07-29T00:12:26;98782.84;;;15.79;84.51
65546;BME280;52177;55.968;37.498;2023-07-29T00:12:57;98779.34;;;15.79;84.44
65546;BME280;52177;55.968;37.498;2023-07-29T00:13:27;98783.91;;;15.78;84.45
65546;BME280;52177;55.968;37.498;2023-07-29T00:13:58;98779.34;;;15.79;84.56
65546;BME280;52177;55.968;37.498;2023-07-29T00:14:28;98787.19;;;15.80;84.53
65546;BME280;52177;55.968;37.498;2023-07-29T00:14:58;98784.50;;;15.80;84.46
65546;BME280;52177;55.968;37.498;2023-07-29T00:15:29;98786.13;;;15.81;84.76
65546;BME280;52177;55.968;37.498;2023-07-29T00:15:59;98784.25;;;15.82;84.91
65546;BME280;52177;55.968;37.498;2023-07-29T00:16:29;98790.44;;;15.82;84.83
65546;BME280;52177;55.968;37.498;2023-07-29T00:17:00;98785.91;;;15.83;84.91
65546;BME280;52177;55.968;37.498;2023-07-29T00:17:30;98787.53;;;15.84;85.02
65546;BME280;52177;55.968;37.498;2023-07-29T00:18:00;98787.53;;;15.84;85.04
65546;BME280;52177;55.968;37.498;2023-07-29T00:18:31;98788.34;;;15.85;85.24
65546;BME280;52177;55.968;37.498;2023-07-29T00:19:02;98782.75;;;15.86;85.36
65546;BME280;52177;55.968;37.498;2023-07-29T00:19:33;98783.56;;;15.87;85.52
65546;BME280;52177;55.968;37.498;2023-07-29T00:20:04;98784.38;;;15.87;85.51
65546;BME280;52177;55.968;37.498;2023-07-29T00:20:35;98786.00;;;15.88;85.68
65546;BME280;52177;55.968;37.498;2023-07-29T00:21:05;98779.56;;;15.89;85.62
65546;BME280;52177;55.968;37.498;2023-07-29T00:21:36;98779.34;;;15.91;85.67
65546;BME280;52177;55.968;37.498;2023-07-29T00:22:06;98773.97;;;15.91;85.61
65546;BME280;52177;55.968;37.498;2023-07-29T00:22:38;98769.41;;;15.91;85.66
65546;BME280;52177;55.968;37.498;2023-07-29T00:23:08;98769.66;;;15.90;85.45
65546;BME280;52177;55.968;37.498;2023-07-29T00:23:39;98765.09;;;15.90;85.23
65546;BME280;52177;55.968;37.498;2023-07-29T00:24:09;98759.72;;;15.90;85.11
65546;BME280;52177;55.968;37.498;2023-07-29T00:24:40;98758.66;;;15.91;84.58
65546;BME280;52177;55.968;37.498;2023-07-29T00:25:11;98762.41;;;15.90;84.31
65546;BME280;52177;55.968;37.498;2023-07-29T00:25:41;98755.38;;;15.89;84.36
65546;BME280;52177;55.968;37.498;2023-07-29T00:26:11;98754.81;;;15.87;84.05
65546;BME280;52177;55.968;37.498;2023-07-29T00:26:42;98756.94;;;15.85;83.86
65546;BME280;52177;55.968;37.498;2023-07-29T00:27:12;98754.69;;;15.82;84.05
65546;BME280;52177;55.968;37.498;2023-07-29T00:27:42;98757.38;;;15.82;84.05
65546;BME280;52177;55.968;37.498;2023-07-29T00:28:13;98758.44;;;15.81;84.16
65546;BME280;52177;55.968;37.498;2023-07-29T00:28:43;98763.81;;;15.81;83.87
65546;BME280;52177;55.968;37.498;2023-07-29T00:29:13;98755.75;;;15.81;84.32
65546;BME280;52177;55.968;37.498;2023-07-29T00:29:43;98757.38;;;15.82;84.32
65546;BME280;52177;55.968;37.498;2023-07-29T00:30:14;98764.41;;;15.83;84.14
65546;BME280;52177;55.968;37.498;2023-07-29T00:30:44;98766.03;;;15.84;84.37
65546;BME280;52177;55.968;37.498;2023-07-29T00:31:14;98754.47;;;15.83;84.54
65546;BME280;52177;55.968;37.498;2023-07-29T00:31:45;98757.97;;;15.84;84.60
65546;BME280;52177;55.968;37.498;2023-07-29T00:32:15;98760.44;;;15.86;84.73
65546;BME280;52177;55.968;37.498;2023-07-29T00:32:45;98759.63;;;15.85;84.75
65546;BME280;52177;55.968;37.498;2023-07-29T00:33:16;98759.38;;;15.87;84.75
65546;BME280;52177;55.968;37.498;2023-07-29T00:33:46;98761.47;;;15.85;84.58
65546;BME280;52177;55.968;37.498;2023-07-29T00:34:16;98756.09;;;15.85;84.42
65546;BME280;52177;55.968;37.498;2023-07-29T00:34:49;98760.66;;;15.84;84.22
65546;BME280;52177;55.968;37.498;2023-07-29T00:35:19;98758.19;;;15.82;84.04
65546;BME280;52177;55.968;37.498;2023-07-29T00:35:50;98760.31;;;15.80;84.01
65546;BME280;52177;55.968;37.498;2023-07-29T00:36:20;98761.56;;;15.78;84.14
65546;BME280;52177;55.968;37.498;2023-07-29T00:36:50;98762.41;;;15.78;84.29
65546;BME280;52177;55.968;37.498;2023-07-29T00:37:21;98768.00;;;15.77;84.29
65546;BME280;52177;55.968;37.498;2023-07-29T00:37:51;98766.94;;;15.78;84.41
65546;BME280;52177;55.968;37.498;2023-07-29T00:38:22;98769.63;;;15.78;84.56
65546;BME280;52177;55.968;37.498;2023-07-29T00:38:52;98773.16;;;15.78;84.68
65546;BME280;52177;55.968;37.498;2023-07-29T00:39:24;98766.94;;;15.78;84.87
65546;BME280;52177;55.968;37.498;2023-07-29T00:39:54;98772.09;;;15.79;84.86
65546;BME280;52177;55.968;37.498;2023-07-29T00:40:28;98773.97;;;15.79;85.03
65546;BME280;52177;55.968;37.498;2023-07-29T00:41:00;98774.56;;;15.81;84.82
65546;BME280;52177;55.968;37.498;2023-07-29T00:41:30;98770.22;;;15.80;85.03
65546;BME280;52177;55.968;37.498;2023-07-29T00:42:01;98769.19;;;15.81;84.69
65546;BME280;52177;55.968;37.498;2023-07-29T00:42:31;98771.88;;;15.81;84.56
65546;BME280;52177;55.968;37.498;2023-07-29T00:43:02;98770.00;;;15.81;84.51
65546;BME280;52177;55.968;37.498;2023-07-29T00:43:32;98776.19;;;15.82;84.52
65546;BME280;52177;55.968;37.498;2023-07-29T00:44:02;98776.78;;;15.84;84.51
65546;BME280;52177;55.968;37.498;2023-07-29T00:44:33;98776.78;;;15.84;84.53
65546;BME280;52177;55.968;37.498;2023-07-29T00:45:03;98767.69;;;15.85;84.63
65546;BME280;52177;55.968;37.498;2023-07-29T00:45:36;98767.69;;;15.85;84.74
65546;BME280;52177;55.968;37.498;2023-07-29T00:46:08;98770.13;;;15.87;84.72
65546;BME280;52177;55.968;37.498;2023-07-29T00:46:40;98768.25;;;15.87;85.05
65546;BME280;52177;55.968;37.498;2023-07-29T00:47:12;98767.19;;;15.88;85.09
65546;BME280;52177;55.968;37.498;2023-07-29T00:47:44;98769.06;;;15.88;85.19
65546;BME280;52177;55.968;37.498;2023-07-29T00:48:15;98767.19;;;15.88;85.22
65546;BME280;52177;55.968;37.498;2023-07-29T00:48:45;98766.38;;;15.88;85.18
65546;BME280;52177;55.968;37.498;2023-07-29T00:49:16;98767.19;;;15.88;85.07
65546;BME280;52177;55.968;37.498;2023-07-29T00:49:46;98768.00;;;15.89;84.90
65546;BME280;52177;55.968;37.498;2023-07-29T00:50:17;98773.38;;;15.89;84.81
65546;BME280;52177;55.968;37.498;2023-07-29T00:50:47;98765.31;;;15.89;84.88
65546;BME280;52177;55.968;37.498;2023-07-29T00:51:18;98771.50;;;15.89;84.80
65546;BME280;52177;55.968;37.498;2023-07-29T00:51:48;98765.31;;;15.89;84.55
65546;BME280;52177;55.968;37.498;2023-07-29T00:52:19;98768.81;;;15.89;84.32
65546;BME280;52177;55.968;37.498;2023-07-29T00:52:50;98768.59;;;15.91;84.08
65546;BME280;52177;55.968;37.498;2023-07-29T00:53:20;98768.81;;;15.89;83.98
65546;BME280;52177;55.968;37.498;2023-07-29T00:53:50;98772.81;;;15.87;83.72
65546;BME280;52177;55.968;37.498;2023-07-29T00:54:21;98769.31;;;15.86;83.55
65546;BME280;52177;55.968;37.498;2023-07-29T00:54:51;98767.91;;;15.83;83.54
65546;BME280;52177;55.968;37.498;2023-07-29T00:55:22;98775.16;;;15.83;83.73
65546;BME280;52177;55.968;37.498;2023-07-29T00:55:53;98768.94;;;15.82;83.79
65546;BME280;52177;55.968;37.498;2023-07-29T00:56:23;98778.06;;;15.81;83.89
65546;BME280;52177;55.968;37.498;2023-07-29T00:56:54;98773.50;;;15.82;84.09
65546;BME280;52177;55.968;37.498;2023-07-29T00:57:25;98775.38;;;15.81;84.18
65546;BME280;52177;55.968;37.498;2023-07-29T00:57:56;98775.16;;;15.83;84.43
65546;BME280;52177;55.968;37.498;2023-07-29T00:58:27;98778.66;;;15.83;84.51
65546;BME280;52177;55.968;37.498;2023-07-29T00:58:58;98775.97;;;15.83;84.45
65546;BME280;52177;55.968;37.498;2023-07-29T00:59:31;98781.34;;;15.83;84.50
65546;BME280;52177;55.968;37.498;2023-07-29T01:00:02;98778.66;;;15.83;84.72
65546;BME280;52177;55.968;37.498;2023-07-29T01:00:34;98777.38;;;15.86;84.71
65546;BME280;52177;55.968;37.498;2023-07-29T01:01:05;98779.81;;;15.88;84.63
65546;BME280;52177;55.968;37.498;2023-07-29T01:01:35;98783.56;;;15.87;84.43
65546;BME280;52177;55.968;37.498;2023-07-29T01:02:05;98770.13;;;15.87;84.49
65546;BME280;52177;55.968;37.498;2023-07-29T01:02:36;98777.38;;;15.86;84.38
65546;BME280;52177;55.968;37.498;2023-07-29T01:03:06;98779.81;;;15.88;84.40
65546;BME280;52177;55.968;37.498;2023-07-29T01:03:37;98787.06;;;15.87;84.66
65546;BME280;52177;55.968;37.498;2023-07-29T01:04:07;98781.69;;;15.87;84.48
65546;BME280;52177;55.968;37.498;2023-07-29T01:04:38;98779.00;;;15.87;84.55
65546;BME280;52177;55.968;37.498;2023-07-29T01:05:08;98779.00;;;15.87;84.57
65546;BME280;52177;55.968;37.498;2023-07-29T01:05:55;98775.25;;;15.88;84.25
65546;BME280;52177;55.968;37.498;2023-07-29T01:06:43;98775.03;;;15.90;84.03
65546;BME280;52177;55.968;37.498;2023-07-29T01:07:33;98775.84;;;15.90;83.56
65546;BME280;52177;55.968;37.498;2023-07-29T01:08:19;98764.75;;;15.87;83.45
65546;BME280;52177;55.968;37.498;2023-07-29T01:09:07;98773.50;;;15.82;83.64
65546;BME280;52177;55.968;37.498;2023-07-29T01:10:04;98770.81;;;15.82;83.59
65546;BME280;52177;55.968;37.498;2023-07-29T01:10:58;98764.84;;;15.80;83.84
65546;BME280;52177;55.968;37.498;2023-07-29T01:11:35;98763.81;;;15.81;83.97
65546;BME280;52177;55.968;37.498;2023-07-29T01:12:23;98752.47;;;15.79;84.11
65546;BME280;52177;55.968;37.498;2023-07-29T01:13:06;98764.84;;;15.80;84.08
65546;BME280;52177;55.968;37.498;2023-07-29T01:14:04;98764.63;;;15.81;83.59
65546;BME280;52177;55.968;37.498;2023-07-29T01:14:47;98752.00;;;15.82;83.53
65546;BME280;52177;55.968;37.498;2023-07-29T01:15:24;98756.78;;;15.80;83.44
65546;BME280;52177;55.968;37.498;2023-07-29T01:16:01;98751.66;;;15.78;83.68
65546;BME280;52177;55.968;37.498;2023-07-29T01:16:45;98757.25;;;15.77;83.93
65546;BME280;52177;55.968;37.498;2023-07-29T01:17:25;98759.94;;;15.77;84.39
65546;BME280;52177;55.968;37.498;2023-07-29T01:18:08;98762.84;;;15.75;84.38
65546;BME280;52177;55.968;37.498;2023-07-29T01:18:41;98759.94;;;15.77;84.60
65546;BME280;52177;55.968;37.498;2023-07-29T01:19:26;98762.63;;;15.77;84.94
65546;BME280;52177;55.968;37.498;2023-07-29T01:20:07;98757.84;;;15.79;85.22
65546;BME280;52177;55.968;37.498;2023-07-29T01:20:40;98765.91;;;15.79;85.26
65546;BME280;52177;55.968;37.498;2023-07-29T01:21:13;98765.91;;;15.79;85.34
65546;BME280;52177;55.968;37.498;2023-07-29T01:21:44;98771.88;;;15.81;85.29
65546;BME280;52177;55.968;37.498;2023-07-29T01:22:16;98755.75;;;15.81;85.14
65546;BME280;52177;55.968;37.498;2023-07-29T01:22:47;98758.19;;;15.82;85.00
65546;BME280;52177;55.968;37.498;2023-07-29T01:23:23;98757.16;;;15.83;84.57
65546;BME280;52177;55.968;37.498;2023-07-29T01:23:58;98759.25;;;15.81;84.27
65546;BME280;52177;55.968;37.498;2023-07-29T01:24:29;98754.94;;;15.80;84.12
65546;BME280;52177;55.968;37.498;2023-07-29T01:25:00;98764.63;;;15.81;84.28
65546;BME280;52177;55.968;37.498;2023-07-29T01:25:30;98758.44;;;15.81;84.24
65546;BME280;52177;55.968;37.498;2023-07-29T01:26:01;98761.13;;;15.81;84.34
65546;BME280;52177;55.968;37.498;2023-07-29T01:26:32;98747.69;;;15.81;84.45
65546;BME280;52177;55.968;37.498;2023-07-29T01:27:02;98745.81;;;15.81;84.26
65546;BME280;52177;55.968;37.498;2023-07-29T01:27:34;98750.38;;;15.81;84.07
65546;BME280;52177;55.968;37.498;2023-07-29T01:28:05;98749.56;;;15.80;84.05
65546;BME280;52177;55.968;37.498;2023-07-29T01:28:35;98756.56;;;15.81;83.95
65546;BME280;52177;55.968;37.498;2023-07-29T01:29:06;98752.47;;;15.79;84.22
65546;BME280;52177;55.968;37.498;2023-07-29T01:29:36;98750.81;;;15.78;84.28
65546;BME280;52177;55.968;37.498;2023-07-29T01:30:07;98747.31;;;15.77;84.10
65546;BME280;52177;55.968;37.498;2023-07-29T01:30:43;98747.56;;;15.76;84.00
65546;BME280;52177;55.968;37.498;2023-07-29T01:31:34;98739.03;;;15.79;83.73
65546;BME280;52177;55.968;37.498;2023-07-29T01:32:16;98730.63;;;15.75;83.78
65546;BME280;52177;55.968;37.498;2023-07-29T01:32:54;98734.59;;;15.73;83.54
65546;BME280;52177;55.968;37.498;2023-07-29T01:33:26;98735.03;;;15.70;83.59
65546;BME280;52177;55.968;37.498;2023-07-29T01:34:13;98734.66;;;15.66;83.77
65546;BME280;52177;55.968;37.498;2023-07-29T01:34:49;98732.47;;;15.63;83.78
65546;BME280;52177;55.968;37.498;2023-07-29T01:35:29;98733.75;;;15.60;84.18
65546;BME280;52177;55.968;37.498;2023-07-29T01:36:06;98735.03;;;15.58;84.54
65546;BME280;52177;55.968;37.498;2023-07-29T01:36:41;98737.13;;;15.56;84.72
65546;BME280;52177;55.968;37.498;2023-07-29T01:37:18;98744.16;;;15.57;84.81
65546;BME280;52177;55.968;37.498;2023-07-29T01:37:52;98733.41;;;15.57;84.79
65546;BME280;52177;55.968;37.498;2023-07-29T01:38:35;98741.22;;;15.58;84.76
65546;BME280;52177;55.968;37.498;2023-07-29T01:39:06;98743.09;;;15.58;84.79
65546;BME280;52177;55.968;37.498;2023-07-29T01:39:37;98739.59;;;15.57;84.94
65546;BME280;52177;55.968;37.498;2023-07-29T01:40:10;98736.91;;;15.57;84.79
65546;BME280;52177;55.968;37.498;2023-07-29T01:40:41;98743.69;;;15.60;85.08
65546;BME280;52177;55.968;37.498;2023-07-29T01:41:13;98741.81;;;15.60;85.03
65546;BME280;52177;55.968;37.498;2023-07-29T01:41:44;98744.28;;;15.62;84.94
65546;BME280;52177;55.968;37.498;2023-07-29T01:42:15;98737.25;;;15.61;84.77
65546;BME280;52177;55.968;37.498;2023-07-29T01:42:46;98743.44;;;15.61;85.05
65546;BME280;52177;55.968;37.498;2023-07-29T01:43:16;98733.53;;;15.62;85.33
65546;BME280;52177;55.968;37.498;2023-07-29T01:43:49;98737.03;;;15.62;85.32
65546;BME280;52177;55.968;37.498;2023-07-29T01:44:23;98735.38;;;15.61;85.31
65546;BME280;52177;55.968;37.498;2023-07-29T01:44:54;98738.06;;;15.61;85.45
65546;BME280;52177;55.968;37.498;2023-07-29T01:45:24;98732.69;;;15.61;85.54
65546;BME280;52177;55.968;37.498;2023-07-29T01:45:58;98727.78;;;15.58;85.35
65546;BME280;52177;55.968;37.498;2023-07-29T01:46:28;98724.06;;;15.59;85.61
65546;BME280;52177;55.968;37.498;2023-07-29T01:46:59;98731.28;;;15.59;85.48
65546;BME280;52177;55.968;37.498;2023-07-29T01:47:30;98732.13;;;15.59;85.52
65546;BME280;52177;55.968;37.498;2023-07-29T01:48:00;98723.00;;;15.60;85.49
65546;BME280;52177;55.968;37.498;2023-07-29T01:48:31;98728.59;;;15.59;85.37
65546;BME280;52177;55.968;37.498;2023-07-29T01:49:02;98725.91;;;15.59;85.42
65546;BME280;52177;55.968;37.498;2023-07-29T01:49:32;98725.91;;;15.59;85.40
65546;BME280;52177;55.968;37.498;2023-07-29T01:50:02;98721.38;;;15.59;85.36
65546;BME280;52177;55.968;37.498;2023-07-29T01:50:34;98717.63;;;15.60;85.38
65546;BME280;52177;55.968;37.498;2023-07-29T01:51:05;98721.38;;;15.59;85.20
65546;BME280;52177;55.968;37.498;2023-07-29T01:51:35;98715.16;;;15.59;85.21
65546;BME280;52177;55.968;37.498;2023-07-29T01:52:06;98717.03;;;15.58;85.21
65546;BME280;52177;55.968;37.498;2023-07-29T01:52:36;98719.13;;;15.56;85.31
65546;BME280;52177;55.968;37.498;2023-07-29T01:53:06;98717.50;;;15.55;85.31
65546;BME280;52177;55.968;37.498;2023-07-29T01:53:37;98714.00;;;15.55;85.49
65546;BME280;52177;55.968;37.498;2023-07-29T01:54:07;98711.56;;;15.53;85.65
65546;BME280;52177;55.968;37.498;2023-07-29T01:54:37;98722.06;;;15.55;85.62
65546;BME280;52177;55.968;37.498;2023-07-29T01:55:08;98713.31;;;15.59;85.32
65546;BME280;52177;55.968;37.498;2023-07-29T01:55:39;98712.25;;;15.60;84.77
65546;BME280;52177;55.968;37.498;2023-07-29T01:56:09;98713.31;;;15.59;84.81
65546;BME280;52177;55.968;37.498;2023-07-29T01:56:39;98714.59;;;15.57;84.90
65546;BME280;52177;55.968;37.498;2023-07-29T01:57:10;98715.03;;;15.54;85.05
65546;BME280;52177;55.968;37.498;2023-07-29T01:57:40;98716.91;;;15.53;85.17
65546;BME280;52177;55.968;37.498;2023-07-29T01:58:11;98717.41;;;15.50;85.03
65546;BME280;52177;55.968;37.498;2023-07-29T01:58:41;98720.31;;;15.49;85.07
65546;BME280;52177;55.968;37.498;2023-07-29T01:59:11;98712.47;;;15.47;85.24
65546;BME280;52177;55.968;37.498;2023-07-29T01:59:43;98715.75;;;15.49;85.31
65546;BME280;52177;55.968;37.498;2023-07-29T02:00:14;98714.72;;;15.50;85.27
65546;BME280;52177;55.968;37.498;2023-07-29T02:00:45;98719.03;;;15.51;85.36
65546;BME280;52177;55.968;37.498;2023-07-29T02:01:15;98713.88;;;15.50;85.55
65546;BME280;52177;55.968;37.498;2023-07-29T02:01:46;98713.66;;;15.51;85.42
65546;BME280;52177;55.968;37.498;2023-07-29T02:02:16;98715.53;;;15.51;85.38
65546;BME280;52177;55.968;37.498;2023-07-29T02:02:46;98712.03;;;15.50;85.18
65546;BME280;52177;55.968;37.498;2023-07-29T02:03:17;98713.88;;;15.50;85.40
65546;BME280;52177;55.968;37.498;2023-07-29T02:03:48;98710.38;;;15.49;85.62
65546;BME280;52177;55.968;37.498;2023-07-29T02:04:24;98705.25;;;15.48;85.80
65546;BME280;52177;55.968;37.498;2023-07-29T02:04:55;98711.44;;;15.48;85.79
65546;BME280;52177;55.968;37.498;2023-07-29T02:05:26;98707.69;;;15.49;85.97
65546;BME280;52177;55.968;37.498;2023-07-29T02:05:56;98712.03;;;15.50;86.07
65546;BME280;52177;55.968;37.498;2023-07-29T02:06:26;98709.34;;;15.50;85.87
65546;BME280;52177;55.968;37.498;2023-07-29T02:06:57;98711.78;;;15.52;85.97
65546;BME280;52177;55.968;37.498;2023-07-29T02:07:27;98708.28;;;15.51;85.87
65546;BME280;52177;55.968;37.498;2023-07-29T02:07:58;98716.34;;;15.51;85.86
65546;BME280;52177;55.968;37.498;2023-07-29T02:08:28;98710.97;;;15.51;86.05
65546;BME280;52177;55.968;37.498;2023-07-29T02:08:58;98716.13;;;15.53;85.92
65546;BME280;52177;55.968;37.498;2023-07-29T02:09:29;98720.69;;;15.52;85.87
65546;BME280;52177;55.968;37.498;2023-07-29T02:10:01;98721.13;;;15.49;85.75
65546;BME280;52177;55.968;37.498;2023-07-29T02:10:31;98712.84;;;15.51;85.94
65546;BME280;52177;55.968;37.498;2023-07-29T02:11:02;98724.63;;;15.50;86.04
65546;BME280;52177;55.968;37.498;2023-07-29T02:11:32;98717.41;;;15.50;86.23
65546;BME280;52177;55.968;37.498;2023-07-29T02:12:02;98727.88;;;15.52;86.49
65546;BME280;52177;55.968;37.498;2023-07-29T02:12:33;98719.03;;;15.51;86.50
65546;BME280;52177;55.968;37.498;2023-07-29T02:13:03;98720.69;;;15.52;86.53
65546;BME280;52177;55.968;37.498;2023-07-29T02:13:34;98720.91;;;15.51;86.33
65546;BME280;52177;55.968;37.498;2023-07-29T02:14:04;98720.69;;;15.52;86.36
65546;BME280;52177;55.968;37.498;2023-07-29T02:14:34;98717.16;;;15.52;86.17
65546;BME280;52177;55.968;37.498;2023-07-29T02:15:05;98724.41;;;15.51;86.30
65546;BME280;52177;55.968;37.498;2023-07-29T02:15:36;98724.41;;;15.51;86.43
65546;BME280;52177;55.968;37.498;2023-07-29T02:16:13;98717.41;;;15.50;86.54
65546;BME280;52177;55.968;37.498;2023-07-29T02:16:43;98726.03;;;15.52;86.25
65546;BME280;52177;55.968;37.498;2023-07-29T02:17:14;98728.94;;;15.51;86.09
65546;BME280;52177;55.968;37.498;2023-07-29T02:17:44;98728.38;;;15.49;86.32
65546;BME280;52177;55.968;37.498;2023-07-29T02:18:15;98731.88;;;15.49;86.07
65546;BME280;52177;55.968;37.498;2023-07-29T02:18:45;98721.38;;;15.48;85.95
65546;BME280;52177;55.968;37.498;2023-07-29T02:19:16;98728.84;;;15.46;86.07
65546;BME280;52177;55.968;37.498;2023-07-29T02:19:46;98729.88;;;15.45;86.10
65546;BME280;52177;55.968;37.498;2023-07-29T02:20:17;98726.16;;;15.46;86.18
65546;BME280;52177;55.968;37.498;2023-07-29T02:20:47;98726.16;;;15.46;86.33
65546;BME280;52177;55.968;37.498;2023-07-29T02:21:19;98726.16;;;15.46;86.42
65546;BME280;52177;55.968;37.498;2023-07-29T02:21:49;98724.06;;;15.48;86.30
65546;BME280;52177;55.968;37.498;2023-07-29T02:22:19;98723.00;;;15.49;86.13
65546;BME280;52177;55.968;37.498;2023-07-29T02:22:50;98724.06;;;15.48;86.04
65546;BME280;52177;55.968;37.498;2023-07-29T02:23:20;98723.22;;;15.47;86.32
65546;BME280;52177;55.968;37.498;2023-07-29T02:23:50;98729.44;;;15.48;86.40
65546;BME280;52177;55.968;37.498;2023-07-29T02:24:21;98725.09;;;15.47;86.35
65546;BME280;52177;55.968;37.498;2023-07-29T02:24:51;98726.75;;;15.48;86.22
65546;BME280;52177;55.968;37.498;2023-07-29T02:25:22;98724.88;;;15.48;86.21
65546;BME280;52177;55.968;37.498;2023-07-29T02:25:52;98733.97;;;15.47;86.17
65546;BME280;52177;55.968;37.498;2023-07-29T02:26:22;98720.53;;;15.47;86.05
65546;BME280;52177;55.968;37.498;2023-07-29T02:26:53;98725.91;;;15.47;86.27
65546;BME280;52177;55.968;37.498;2023-07-29T02:27:23;98725.47;;;15.50;86.12
65546;BME280;52177;55.968;37.498;2023-07-29T02:27:56;98730.00;;;15.50;86.00
65546;BME280;52177;55.968;37.498;2023-07-29T02:28:27;98730.00;;;15.50;85.83
65546;BME280;52177;55.968;37.498;2023-07-29T02:28:57;98734.56;;;15.49;85.81
65546;BME280;52177;55.968;37.498;2023-07-29T02:29:27;98730.25;;;15.48;86.07
65546;BME280;52177;55.968;37.498;2023-07-29T02:29:58;98732.94;;;15.48;86.12
65546;BME280;52177;55.968;37.498;2023-07-29T02:30:28;98735.34;;;15.50;86.31
65546;BME280;52177;55.968;37.498;2023-07-29T02:31:21;98731.63;;;15.51;86.47
65546;BME280;52177;55.968;37.498;2023-07-29T02:31:52;98734.31;;;15.51;86.76
65546;BME280;52177;55.968;37.498;2023-07-29T02:32:22;98742.16;;;15.52;86.51
65546;BME280;52177;55.968;37.498;2023-07-29T02:32:53;98740.50;;;15.51;86.16
65546;BME280;52177;55.968;37.498;2023-07-29T02:33:23;98737.34;;;15.54;86.19
65546;BME280;52177;55.968;37.498;2023-07-29T02:33:53;98736.53;;;15.54;85.76
65546;BME280;52177;55.968;37.498;2023-07-29T02:34:24;98742.16;;;15.52;85.93
65546;BME280;52177;55.968;37.498;2023-07-29T02:34:54;98739.47;;;15.52;86.08
65546;BME280;52177;55.968;37.498;2023-07-29T02:35:25;98735.13;;;15.51;86.11
65546;BME280;52177;55.968;37.498;2023-07-29T02:35:55;98743.19;;;15.51;86.16
65546;BME280;52177;55.968;37.498;2023-07-29T02:36:26;98745.88;;;15.51;85.96
65546;BME280;52177;55.968;37.498;2023-07-29T02:36:56;98746.69;;;15.52;86.24
65546;BME280;52177;55.968;37.498;2023-07-29T02:37:26;98747.53;;;15.52;86.21
65546;BME280;52177;55.968;37.498;2023-07-29T02:37:57;98748.34;;;15.53;86.42
65546;BME280;52177;55.968;37.498;2023-07-29T02:38:27;98747.53;;;15.52;86.35
65546;BME280;52177;55.968;37.498;2023-07-29T02:38:57;98747.53;;;15.52;86.46
65546;BME280;52177;55.968;37.498;2023-07-29T02:39:28;98746.69;;;15.52;86.47
65546;BME280;52177;55.968;37.498;2023-07-29T02:39:58;98752.91;;;15.52;86.51
65546;BME280;52177;55.968;37.498;2023-07-29T02:40:28;98749.97;;;15.54;86.63
65546;BME280;52177;55.968;37.498;2023-07-29T02:40:59;98753.47;;;15.54;86.53
65546;BME280;52177;55.968;37.498;2023-07-29T02:41:29;98753.47;;;15.54;86.70
65546;BME280;52177;55.968;37.498;2023-07-29T02:42:00;98751.63;;;15.55;86.66
65546;BME280;52177;55.968;37.498;2023-07-29T02:42:30;98754.91;;;15.57;87.00
65546;BME280;52177;55.968;37.498;2023-07-29T02:43:00;98751.16;;;15.58;86.81
65546;BME280;52177;55.968;37.498;2023-07-29T02:43:31;98749.28;;;15.58;86.55
65546;BME280;52177;55.968;37.498;2023-07-29T02:44:01;98752.56;;;15.60;86.58
65546;BME280;52177;55.968;37.498;2023-07-29T02:44:31;98753.13;;;15.62;86.69
65546;BME280;52177;55.968;37.498;2023-07-29T02:45:02;98753.94;;;15.63;86.97
65546;BME280;52177;55.968;37.498;2023-07-29T02:45:32;98754.53;;;15.65;86.78
65546;BME280;52177;55.968;37.498;2023-07-29T02:46:03;98751.03;;;15.65;86.89
65546;BME280;52177;55.968;37.498;2023-07-29T02:46:33;98747.28;;;15.66;86.77
65546;BME280;52177;55.968;37.498;2023-07-29T02:47:04;98755.13;;;15.67;86.63
65546;BME280;52177;55.968;37.498;2023-07-29T02:47:34;98743.56;;;15.67;86.67